createdAt,value
2022-10-12T00:00:53.866Z,99.21
2022-10-12T00:02:56.557Z,98.70
2022-10-12T00:04:59.163Z,99.29
2022-10-12T00:07:01.752Z,99.12
2022-10-12T00:09:04.625Z,98.64
2022-10-12T00:11:09.227Z,99.05
2022-10-12T00:13:12.067Z,98.96
2022-10-12T00:15:14.663Z,99.27
2022-10-12T00:17:17.296Z,99.25
2022-10-12T00:19:20.358Z,98.87
2022-10-12T00:21:24.072Z,98.99
2022-10-12T00:23:26.693Z,98.51
2022-10-12T00:25:29.329Z,98.60
2022-10-12T00:27:31.943Z,98.71
2022-10-12T00:29:34.753Z,99.09
2022-10-12T00:31:37.397Z,98.97
2022-10-12T00:33:40.387Z,98.85
2022-10-12T00:35:43.024Z,99.12
2022-10-12T00:37:45.626Z,98.81
2022-10-12T00:39:48.953Z,98.76
2022-10-12T00:41:51.566Z,99.12
2022-10-12T00:43:58.328Z,99.05
2022-10-12T00:46:05.664Z,98.85
2022-10-12T00:48:09.059Z,99.04
2022-10-12T00:50:28.382Z,98.85
2022-10-12T00:52:42.324Z,98.84
2022-10-12T00:54:48.828Z,98.72
2022-10-12T00:56:54.614Z,98.70
2022-10-12T00:59:02.267Z,98.58
2022-10-12T01:01:06.378Z,98.58
2022-10-12T01:03:13.113Z,98.73
2022-10-12T01:05:16.100Z,98.82
2022-10-12T01:07:18.860Z,99.01
2022-10-12T01:09:21.864Z,98.91
2022-10-12T01:11:25.331Z,98.76
2022-10-12T01:13:28.221Z,98.62
2022-10-12T01:15:56.134Z,98.67
2022-10-12T01:18:19.334Z,98.91
2022-10-12T01:20:41.134Z,99.02
2022-10-12T01:23:18.871Z,98.87
2022-10-12T01:25:49.918Z,98.84
2022-10-12T01:28:00.655Z,98.88
2022-10-12T01:30:20.122Z,99.03
2022-10-12T01:32:48.730Z,99.41
2022-10-12T01:35:07.621Z,99.06
2022-10-12T01:37:25.499Z,99.40
2022-10-12T01:39:53.958Z,99.38
2022-10-12T01:42:07.208Z,99.25
2022-10-12T01:44:09.870Z,99.45
2022-10-12T01:46:15.378Z,98.97
2022-10-12T01:48:19.009Z,99.44
2022-10-12T01:50:26.435Z,99.15
2022-10-12T01:52:32.259Z,99.34
2022-10-12T01:55:07.875Z,99.31
2022-10-12T01:57:37.029Z,99.29
2022-10-12T02:00:09.958Z,99.48
2022-10-12T02:02:35.920Z,99.15
2022-10-12T02:04:41.879Z,99.03
2022-10-12T02:06:57.880Z,99.28
2022-10-12T02:09:08.216Z,99.35
2022-10-12T02:11:17.562Z,98.88
2022-10-12T02:13:23.003Z,98.68
2022-10-12T02:15:27.593Z,99.25
2022-10-12T02:17:31.970Z,99.30
2022-10-12T02:19:40.479Z,99.03
2022-10-12T02:22:06.135Z,99.06
2022-10-12T02:24:10.626Z,99.07
2022-10-12T02:26:15.909Z,99.04
2022-10-12T02:28:21.675Z,98.65
2022-10-12T02:30:24.667Z,99.28
2022-10-12T02:32:52.406Z,98.90
2022-10-12T02:35:14.432Z,98.82
2022-10-12T02:37:43.065Z,99.13
2022-10-12T02:39:51.590Z,98.87
2022-10-12T02:41:59.513Z,98.92
2022-10-12T02:44:06.784Z,99.05
2022-10-12T02:46:11.189Z,98.95
2022-10-12T02:48:20.141Z,99.06
2022-10-12T02:50:24.264Z,98.98
2022-10-12T02:52:27.709Z,99.43
2022-10-12T02:54:30.861Z,98.91
2022-10-12T02:56:33.555Z,99.08
2022-10-12T02:58:36.400Z,98.80
2022-10-12T03:00:38.977Z,98.77
2022-10-12T03:02:41.639Z,98.71
2022-10-12T03:04:44.412Z,98.23
2022-10-12T03:06:47.135Z,98.41
2022-10-12T03:08:49.778Z,98.21
2022-10-12T03:10:52.371Z,97.76
2022-10-12T03:12:55.149Z,97.89
2022-10-12T03:14:57.751Z,98.10
2022-10-12T03:17:00.726Z,98.05
2022-10-12T03:19:03.345Z,98.31
2022-10-12T03:21:06.157Z,98.36
2022-10-12T03:23:08.827Z,98.20
2022-10-12T03:25:11.423Z,98.08
2022-10-12T03:27:14.289Z,98.29
2022-10-12T03:29:16.952Z,97.88
2022-10-12T03:31:19.647Z,98.09
2022-10-12T03:33:22.395Z,98.30
2022-10-12T03:35:24.974Z,98.34
2022-10-12T03:37:27.638Z,97.92
2022-10-12T03:39:30.358Z,97.66
2022-10-12T03:41:32.978Z,97.74
2022-10-12T03:43:35.768Z,97.65
2022-10-12T03:45:38.679Z,97.35
2022-10-12T03:47:41.631Z,97.44
2022-10-12T03:49:44.355Z,96.89
2022-10-12T03:51:46.971Z,97.24
2022-10-12T03:53:49.659Z,97.31
2022-10-12T03:55:52.278Z,96.40
2022-10-12T03:57:54.925Z,96.70
2022-10-12T03:59:57.641Z,96.38
2022-10-12T04:02:00.323Z,96.31
2022-10-12T04:04:03.011Z,96.16
2022-10-12T04:06:05.894Z,95.95
2022-10-12T04:08:08.593Z,95.92
2022-10-12T04:10:11.276Z,95.95
2022-10-12T04:12:14.151Z,95.13
2022-10-12T04:14:16.775Z,95.18
2022-10-12T04:16:19.480Z,95.41
2022-10-12T04:18:22.114Z,95.18
2022-10-12T04:20:24.778Z,94.95
2022-10-12T04:22:27.753Z,94.83
2022-10-12T04:24:30.438Z,94.33
2022-10-12T04:26:33.075Z,94.30
2022-10-12T04:28:35.995Z,94.13
2022-10-12T04:30:39.007Z,94.20
2022-10-12T04:32:41.687Z,93.92
2022-10-12T04:34:44.395Z,93.87
2022-10-12T04:36:47.016Z,93.15
2022-10-12T04:38:49.711Z,92.75
2022-10-12T04:40:52.619Z,92.65
2022-10-12T04:42:56.354Z,92.87
2022-10-12T04:44:59.007Z,92.79
2022-10-12T04:47:02.571Z,92.90
2022-10-12T04:49:05.167Z,92.69
2022-10-12T04:51:07.809Z,93.28
2022-10-12T04:53:10.442Z,93.18
2022-10-12T04:55:13.174Z,93.12
2022-10-12T04:57:15.789Z,93.21
2022-10-12T04:59:18.671Z,93.57
2022-10-12T05:01:21.452Z,93.26
2022-10-12T05:03:24.714Z,92.99
2022-10-12T05:05:27.423Z,93.10
2022-10-12T05:07:30.129Z,92.84
2022-10-12T05:09:32.813Z,93.08
2022-10-12T05:11:35.461Z,93.13
2022-10-12T05:13:38.700Z,93.56
2022-10-12T05:15:42.983Z,93.47
2022-10-12T05:17:45.612Z,93.32
2022-10-12T05:19:48.217Z,93.42
2022-10-12T05:21:50.965Z,93.71
2022-10-12T05:23:53.722Z,93.63
2022-10-12T05:25:56.886Z,93.75
2022-10-12T05:27:59.738Z,93.62
2022-10-12T05:30:02.375Z,94.11
2022-10-12T05:32:06.593Z,93.64
2022-10-12T05:34:09.266Z,93.72
2022-10-12T05:36:11.998Z,93.94
2022-10-12T05:38:14.612Z,94.17
2022-10-12T05:40:17.247Z,93.72
2022-10-12T05:42:19.814Z,93.67
2022-10-12T05:44:22.417Z,93.47
2022-10-12T05:46:25.007Z,93.37
2022-10-12T05:48:27.966Z,93.42
2022-10-12T05:50:30.767Z,93.61
2022-10-12T05:52:33.384Z,93.46
2022-10-12T05:54:36.046Z,93.28
2022-10-12T05:56:38.622Z,93.46
2022-10-12T05:58:42.297Z,93.27
2022-10-12T06:00:44.975Z,92.97
2022-10-12T06:02:48.162Z,93.28
2022-10-12T06:04:50.683Z,93.10
2022-10-12T06:06:53.302Z,93.18
2022-10-12T06:08:55.946Z,93.38
2022-10-12T06:10:58.703Z,93.61
2022-10-12T06:13:02.031Z,94.05
2022-10-12T06:15:05.297Z,93.94
2022-10-12T06:17:09.764Z,94.08
2022-10-12T06:19:12.416Z,94.79
2022-10-12T06:21:32.647Z,94.97
2022-10-12T06:23:36.469Z,95.40
2022-10-12T06:25:39.020Z,95.46
2022-10-12T06:27:41.613Z,95.73
2022-10-12T06:29:44.154Z,96.16
2022-10-12T06:31:51.425Z,96.13
2022-10-12T06:33:54.629Z,96.29
2022-10-12T06:35:57.446Z,96.50
2022-10-12T06:38:00.183Z,96.43
2022-10-12T06:40:02.984Z,96.28
2022-10-12T06:42:07.619Z,96.27
2022-10-12T06:44:10.355Z,96.29
2022-10-12T06:46:12.969Z,96.89
2022-10-12T06:48:18.570Z,96.46
2022-10-12T06:50:21.578Z,96.65
2022-10-12T06:52:24.189Z,96.54
2022-10-12T06:54:26.782Z,96.75
2022-10-12T06:56:29.420Z,97.14
2022-10-12T06:58:32.031Z,97.39
2022-10-12T07:00:35.203Z,98.15
2022-10-12T07:02:38.225Z,97.38
2022-10-12T07:04:41.056Z,97.41
2022-10-12T07:06:43.750Z,97.73
2022-10-12T07:08:46.512Z,97.21
2022-10-12T07:10:49.092Z,97.39
2022-10-12T07:12:51.658Z,96.99
2022-10-12T07:14:58.149Z,96.86
2022-10-12T07:17:00.780Z,96.51
2022-10-12T07:19:03.489Z,96.40
2022-10-12T07:21:06.358Z,96.82
2022-10-12T07:23:08.941Z,96.81
2022-10-12T07:25:11.867Z,97.11
2022-10-12T07:27:14.622Z,96.40
2022-10-12T07:29:17.349Z,96.78
2022-10-12T07:31:20.007Z,97.10
2022-10-12T07:33:22.615Z,96.78
2022-10-12T07:35:25.212Z,96.88
2022-10-12T07:37:27.902Z,96.59
2022-10-12T07:39:30.851Z,96.48
2022-10-12T07:41:33.444Z,96.26
2022-10-12T07:43:36.017Z,96.00
2022-10-12T07:45:39.174Z,96.17
2022-10-12T07:47:41.856Z,96.10
2022-10-12T07:49:44.698Z,96.28
2022-10-12T07:51:47.582Z,96.44
2022-10-12T07:53:50.883Z,97.02
2022-10-12T07:55:54.254Z,96.86
2022-10-12T07:57:56.843Z,96.84
2022-10-12T07:59:59.553Z,97.33
2022-10-12T08:02:02.386Z,97.33
2022-10-12T08:04:05.112Z,97.35
2022-10-12T08:06:16.253Z,97.74
2022-10-12T08:08:19.062Z,97.92
2022-10-12T08:10:22.318Z,98.08
2022-10-12T08:12:24.909Z,98.58
2022-10-12T08:14:27.653Z,98.70
2022-10-12T08:16:30.336Z,98.44
2022-10-12T08:18:33.282Z,98.68
2022-10-12T08:20:35.887Z,98.91
2022-10-12T08:22:38.536Z,98.75
2022-10-12T08:24:41.216Z,98.57
2022-10-12T08:26:43.868Z,98.84
2022-10-12T08:28:46.631Z,99.30
2022-10-12T08:30:49.706Z,99.42
2022-10-12T08:32:52.301Z,99.39
2022-10-12T08:34:55.021Z,99.11
2022-10-12T08:36:59.774Z,99.00
2022-10-12T08:39:02.662Z,98.47
2022-10-12T08:41:28.210Z,96.85
2022-10-12T08:43:36.741Z,96.58
2022-10-12T08:45:52.053Z,96.48
2022-10-12T08:48:19.337Z,95.88
2022-10-12T08:50:32.017Z,95.00
2022-10-12T08:52:43.880Z,94.71
2022-10-12T08:54:46.338Z,93.00
2022-10-12T08:56:49.167Z,93.19
2022-10-12T08:58:53.723Z,92.23
2022-10-12T09:01:11.786Z,92.57
2022-10-12T09:03:55.872Z,91.16
2022-10-12T09:06:15.127Z,91.25
2022-10-12T09:08:33.066Z,89.66
2022-10-12T09:11:00.118Z,88.64
2022-10-12T09:13:10.954Z,88.66
2022-10-12T09:15:28.908Z,88.51
2022-10-12T09:17:44.435Z,88.18
2022-10-12T09:19:48.060Z,88.45
2022-10-12T09:21:53.814Z,86.90
2022-10-12T09:23:57.745Z,86.15
2022-10-12T09:26:14.557Z,86.73
2022-10-12T09:28:37.943Z,85.61
2022-10-12T09:30:44.393Z,84.76
2022-10-12T09:32:55.793Z,84.84
2022-10-12T09:35:00.221Z,84.66
2022-10-12T09:37:06.857Z,84.21
2022-10-12T09:39:17.538Z,82.27
2022-10-12T09:41:27.872Z,83.41
2022-10-12T09:43:31.007Z,84.01
2022-10-12T09:45:35.217Z,84.03
2022-10-12T09:47:37.909Z,83.97
2022-10-12T09:49:41.937Z,84.47
2022-10-12T09:51:45.798Z,84.73
2022-10-12T09:53:54.099Z,84.86
2022-10-12T09:56:22.647Z,85.25
2022-10-12T09:58:27.481Z,84.88
2022-10-12T10:00:34.871Z,84.20
2022-10-12T10:02:48.818Z,84.67
2022-10-12T10:04:53.105Z,84.97
2022-10-12T10:06:56.215Z,85.17
2022-10-12T10:08:58.950Z,85.54
2022-10-12T10:11:02.614Z,85.84
2022-10-12T10:13:06.421Z,86.01
2022-10-12T10:15:22.019Z,86.34
2022-10-12T10:17:32.839Z,86.50
2022-10-12T10:19:35.439Z,86.14
2022-10-12T10:21:40.306Z,86.08
2022-10-12T10:23:58.166Z,86.38
2022-10-12T10:26:07.823Z,86.82
2022-10-12T10:28:40.988Z,86.19
2022-10-12T10:30:56.663Z,86.14
2022-10-12T10:33:19.784Z,85.77
2022-10-12T10:35:22.689Z,86.25
2022-10-12T10:37:25.419Z,86.37
2022-10-12T10:39:38.452Z,85.87
2022-10-12T10:41:43.190Z,86.29
2022-10-12T10:43:50.142Z,86.05
2022-10-12T10:46:00.264Z,85.86
2022-10-12T10:48:10.924Z,85.88
2022-10-12T10:50:25.799Z,86.37
2022-10-12T10:52:34.565Z,86.07
2022-10-12T10:54:41.245Z,85.94
2022-10-12T10:56:46.743Z,85.39
2022-10-12T10:58:52.823Z,85.28
2022-10-12T11:00:59.895Z,84.17
2022-10-12T11:03:12.939Z,84.03
2022-10-12T11:05:30.229Z,83.76
2022-10-12T11:07:41.290Z,83.59
2022-10-12T11:09:47.969Z,83.87
2022-10-12T11:12:01.643Z,83.13
2022-10-12T11:14:12.816Z,83.31
2022-10-12T11:16:40.150Z,82.76
2022-10-12T11:18:51.360Z,82.81
2022-10-12T11:21:18.584Z,83.27
2022-10-12T11:23:30.188Z,83.80
2022-10-12T11:25:51.038Z,84.70
2022-10-12T11:27:54.010Z,84.78
2022-10-12T11:30:09.319Z,84.29
2022-10-12T11:32:24.216Z,83.59
2022-10-12T11:34:31.569Z,84.21
2022-10-12T11:36:47.341Z,83.43
2022-10-12T11:39:08.251Z,83.06
2022-10-12T11:41:35.018Z,83.61
2022-10-12T11:43:46.724Z,83.20
2022-10-12T11:45:53.641Z,82.59
2022-10-12T11:48:02.964Z,82.57
2022-10-12T11:50:18.554Z,81.79
2022-10-12T11:52:27.786Z,82.37
2022-10-12T11:54:47.981Z,81.45
2022-10-12T11:56:54.614Z,81.73
2022-10-12T11:59:03.211Z,81.81
2022-10-12T12:01:05.865Z,82.17
2022-10-12T12:03:34.154Z,82.31
2022-10-12T12:05:36.785Z,82.18
2022-10-12T12:07:55.623Z,80.36
2022-10-12T12:09:58.323Z,80.54
2022-10-12T12:12:23.846Z,79.93
2022-10-12T12:14:26.554Z,79.85
2022-10-12T12:16:33.334Z,79.69
2022-10-12T12:19:13.858Z,79.68
2022-10-12T12:21:16.707Z,80.22
2022-10-12T12:23:27.196Z,79.97
2022-10-12T12:25:33.064Z,80.24
2022-10-12T12:27:40.250Z,80.68
2022-10-12T12:29:53.447Z,80.68
2022-10-12T12:31:59.334Z,80.63
2022-10-12T12:34:15.604Z,80.27
2022-10-12T12:36:35.133Z,80.69
2022-10-12T12:38:46.642Z,80.77
2022-10-12T12:40:59.702Z,80.57
2022-10-12T12:43:36.835Z,80.80
2022-10-12T12:45:41.471Z,81.19
2022-10-12T12:47:45.951Z,81.18
2022-10-12T12:50:01.266Z,81.13
2022-10-12T12:52:17.439Z,80.95
2022-10-12T12:54:22.734Z,81.07
2022-10-12T12:56:50.364Z,81.56
2022-10-12T12:59:02.755Z,81.72
2022-10-12T13:01:25.207Z,81.89
2022-10-12T13:03:53.761Z,82.11
2022-10-12T13:06:16.397Z,82.08
2022-10-12T13:08:42.438Z,82.96
2022-10-12T13:11:02.717Z,82.72
2022-10-12T13:13:38.958Z,83.33
2022-10-12T13:16:09.999Z,82.93
2022-10-12T13:18:34.538Z,82.76
2022-10-12T13:20:39.758Z,82.52
2022-10-12T13:22:44.731Z,82.68
2022-10-12T13:24:51.372Z,82.68
2022-10-12T13:27:24.699Z,83.03
2022-10-12T13:29:46.861Z,83.41
2022-10-12T13:31:54.134Z,84.30
2022-10-12T13:34:19.541Z,84.58
2022-10-12T13:36:26.226Z,84.72
2022-10-12T13:38:30.502Z,84.77
2022-10-12T13:40:50.750Z,85.06
2022-10-12T13:42:53.355Z,85.49
2022-10-12T13:44:55.998Z,85.32
2022-10-12T13:46:59.833Z,85.13
2022-10-12T13:49:04.152Z,85.39
2022-10-12T13:51:24.307Z,85.77
2022-10-12T13:53:36.527Z,85.79
2022-10-12T13:55:40.545Z,86.19
2022-10-12T13:57:50.367Z,86.44
2022-10-12T14:00:03.289Z,87.09
2022-10-12T14:02:18.649Z,87.92
2022-10-12T14:04:22.351Z,88.18
2022-10-12T14:06:31.693Z,88.55
2022-10-12T14:08:35.642Z,88.66
2022-10-12T14:10:39.210Z,88.70
2022-10-12T14:12:45.213Z,89.01
2022-10-12T14:14:48.662Z,89.31
2022-10-12T14:16:52.243Z,89.41
2022-10-12T14:18:54.856Z,89.34
2022-10-12T14:21:23.533Z,89.42
2022-10-12T14:23:26.274Z,89.52
2022-10-12T14:25:31.338Z,89.79
2022-10-12T14:27:34.530Z,90.61
2022-10-12T14:29:45.732Z,90.44
2022-10-12T14:31:52.575Z,90.49
2022-10-12T14:33:55.667Z,90.86
2022-10-12T14:36:25.055Z,90.87
2022-10-12T14:38:39.420Z,90.95
2022-10-12T14:40:42.328Z,91.15
2022-10-12T14:42:57.834Z,91.36
2022-10-12T14:45:01.984Z,91.38
2022-10-12T14:47:18.239Z,91.55
2022-10-12T14:49:26.531Z,91.63
2022-10-12T14:51:29.610Z,91.84
2022-10-12T14:53:32.268Z,92.07
2022-10-12T14:55:35.317Z,92.33
2022-10-12T14:57:38.217Z,92.23
2022-10-12T14:59:41.159Z,92.27
2022-10-12T15:01:47.443Z,92.10
2022-10-12T15:03:53.061Z,92.43
2022-10-12T15:05:56.411Z,92.90
2022-10-12T15:07:59.891Z,93.02
2022-10-12T15:10:02.513Z,93.88
2022-10-12T15:12:06.534Z,93.92
2022-10-12T15:14:11.423Z,94.18
2022-10-12T15:16:24.272Z,94.38
2022-10-12T15:18:27.356Z,94.47
2022-10-12T15:20:31.390Z,94.67
2022-10-12T15:22:34.048Z,94.76
2022-10-12T15:24:36.686Z,95.14
2022-10-12T15:26:42.315Z,95.55
2022-10-12T15:28:45.540Z,95.87
2022-10-12T15:31:12.205Z,96.01
2022-10-12T15:33:14.293Z,96.37
2022-10-12T15:35:22.147Z,96.91
2022-10-12T15:37:30.324Z,96.94
2022-10-12T15:39:33.016Z,97.32
2022-10-12T15:41:36.002Z,97.67
2022-10-12T15:43:41.196Z,97.76
2022-10-12T15:45:44.809Z,98.03
2022-10-12T15:47:47.680Z,98.63
2022-10-12T15:49:50.332Z,99.23
2022-10-12T15:51:55.302Z,99.25
2022-10-12T15:53:58.014Z,99.28
2022-10-12T15:56:00.662Z,99.73
2022-10-12T15:58:03.544Z,100.00
2022-10-12T16:00:06.734Z,100.00
2022-10-12T16:02:13.738Z,100.00
2022-10-12T16:04:17.431Z,100.00
2022-10-12T16:06:20.166Z,100.00
2022-10-12T16:08:23.035Z,100.00
2022-10-12T16:10:28.743Z,100.00
2022-10-12T16:12:31.403Z,100.00
2022-10-12T16:14:34.009Z,100.00
2022-10-12T16:16:36.726Z,100.00
2022-10-12T16:18:39.457Z,100.00
2022-10-12T16:20:42.918Z,100.00
2022-10-12T16:22:46.341Z,100.00
2022-10-12T16:24:49.093Z,100.00
2022-10-12T16:26:51.940Z,100.00
2022-10-12T16:28:54.643Z,100.00
2022-10-12T16:30:57.504Z,100.00
2022-10-12T16:33:00.194Z,100.00
2022-10-12T16:35:03.877Z,100.00
2022-10-12T16:37:06.718Z,100.00
2022-10-12T16:39:09.433Z,100.00
2022-10-12T16:41:14.434Z,100.00
2022-10-12T16:43:17.647Z,100.00
2022-10-12T16:45:21.175Z,100.00
2022-10-12T16:47:25.404Z,100.00
2022-10-12T16:49:28.853Z,100.00
2022-10-12T16:51:31.604Z,100.00
2022-10-12T16:53:34.334Z,100.00
2022-10-12T16:55:38.953Z,100.00
2022-10-12T16:57:41.865Z,100.00
2022-10-12T16:59:44.538Z,100.00
2022-10-12T17:01:47.186Z,100.00
2022-10-12T17:03:49.847Z,100.00
2022-10-12T17:06:01.766Z,100.00
2022-10-12T17:08:04.463Z,100.00
2022-10-12T17:10:07.456Z,100.00
2022-10-12T17:12:10.314Z,100.00
2022-10-12T17:14:15.168Z,100.00
2022-10-12T17:16:37.603Z,100.00
2022-10-12T17:18:40.264Z,100.00
2022-10-12T17:20:42.859Z,100.00
2022-10-12T17:22:45.492Z,100.00
2022-10-12T17:24:48.567Z,100.00
2022-10-12T17:26:51.246Z,100.00
2022-10-12T17:28:54.327Z,100.00
2022-10-12T17:30:57.181Z,100.00
2022-10-12T17:33:00.236Z,100.00
2022-10-12T17:35:02.883Z,100.00
2022-10-12T17:37:08.320Z,100.00
2022-10-12T17:39:11.163Z,100.00
2022-10-12T17:41:13.848Z,100.00
2022-10-12T17:43:16.958Z,100.00
2022-10-12T17:45:27.128Z,100.00
2022-10-12T17:47:30.306Z,100.00
2022-10-12T17:49:32.947Z,100.00
2022-10-12T17:51:35.551Z,100.00
2022-10-12T17:53:44.688Z,100.00
2022-10-12T17:55:48.906Z,100.00
2022-10-12T17:57:52.270Z,100.00
2022-10-12T17:59:55.004Z,100.00
2022-10-12T18:01:57.955Z,100.00
2022-10-12T18:04:01.880Z,100.00
2022-10-12T18:06:06.543Z,100.00
2022-10-12T18:08:09.188Z,100.00
2022-10-12T18:10:11.968Z,100.00
2022-10-12T18:12:14.947Z,100.00
2022-10-12T18:14:18.017Z,100.00
2022-10-12T18:16:23.154Z,100.00
2022-10-12T18:18:26.274Z,100.00
2022-10-12T18:20:29.452Z,100.00
2022-10-12T18:22:32.138Z,100.00
2022-10-12T18:24:34.881Z,100.00
2022-10-12T18:26:38.132Z,100.00
2022-10-12T18:28:42.397Z,100.00
2022-10-12T18:30:50.500Z,100.00
2022-10-12T18:32:53.172Z,100.00
2022-10-12T18:34:56.054Z,100.00
2022-10-12T18:36:58.871Z,100.00
2022-10-12T18:39:03.782Z,100.00
2022-10-12T18:41:09.521Z,100.00
2022-10-12T18:43:12.136Z,100.00
2022-10-12T18:45:14.972Z,100.00
2022-10-12T18:47:20.939Z,100.00
2022-10-12T18:49:26.863Z,100.00
2022-10-12T18:51:31.761Z,100.00
2022-10-12T18:53:35.693Z,100.00
2022-10-12T18:55:38.732Z,100.00
2022-10-12T18:57:41.584Z,100.00
2022-10-12T18:59:44.656Z,100.00
2022-10-12T19:01:47.741Z,100.00
2022-10-12T19:03:51.082Z,100.00
2022-10-12T19:06:06.798Z,100.00
2022-10-12T19:08:09.498Z,100.00
2022-10-12T19:10:12.362Z,100.00
2022-10-12T19:12:17.106Z,100.00
2022-10-12T19:14:20.182Z,100.00
2022-10-12T19:16:23.383Z,100.00
2022-10-12T19:18:26.124Z,100.00
2022-10-12T19:20:28.807Z,100.00
2022-10-12T19:22:31.612Z,100.00
2022-10-12T19:24:34.599Z,100.00
2022-10-12T19:26:37.518Z,100.00
2022-10-12T19:28:40.587Z,100.00
2022-10-12T19:30:43.234Z,100.00
2022-10-12T19:32:48.846Z,100.00
2022-10-12T19:34:52.353Z,100.00
2022-10-12T19:36:55.190Z,100.00
2022-10-12T19:39:05.792Z,100.00
2022-10-12T19:41:09.292Z,100.00
2022-10-12T19:43:13.070Z,100.00
2022-10-12T19:45:15.817Z,100.00
2022-10-12T19:47:18.407Z,100.00
2022-10-12T19:49:21.106Z,100.00
2022-10-12T19:51:24.548Z,100.00
2022-10-12T19:53:28.358Z,100.00
2022-10-12T19:55:35.195Z,100.00
2022-10-12T19:57:38.882Z,100.00
2022-10-12T19:59:41.674Z,100.00
2022-10-12T20:01:48.280Z,100.00
2022-10-12T20:03:51.485Z,100.00
2022-10-12T20:05:54.829Z,100.00
2022-10-12T20:07:57.523Z,100.00
2022-10-12T20:10:00.198Z,100.00
2022-10-12T20:12:03.081Z,100.00
2022-10-12T20:14:06.839Z,100.00
2022-10-12T20:16:09.610Z,100.00
2022-10-12T20:18:12.215Z,100.00
2022-10-12T20:20:14.955Z,100.00
2022-10-12T20:22:18.340Z,100.00
2022-10-12T20:24:21.205Z,100.00
2022-10-12T20:26:26.143Z,100.00
2022-10-12T20:28:28.767Z,100.00
2022-10-12T20:30:31.521Z,100.00
2022-10-12T20:32:35.018Z,100.00
2022-10-12T20:34:40.267Z,100.00
2022-10-12T20:36:42.916Z,100.00
2022-10-12T20:38:49.087Z,100.00
2022-10-12T20:41:05.867Z,100.00
2022-10-12T20:43:08.624Z,100.00
2022-10-12T20:45:14.319Z,100.00
2022-10-12T20:47:17.846Z,100.00
2022-10-12T20:49:20.653Z,100.00
2022-10-12T20:51:27.829Z,100.00
2022-10-12T20:53:30.587Z,100.00
2022-10-12T20:55:33.335Z,100.00
2022-10-12T20:57:36.120Z,100.00
2022-10-12T20:59:38.816Z,100.00
2022-10-12T21:01:41.667Z,100.00
2022-10-12T21:03:44.700Z,100.00
2022-10-12T21:05:47.562Z,100.00
2022-10-12T21:07:50.637Z,100.00
2022-10-12T21:09:53.341Z,100.00
2022-10-12T21:11:56.118Z,100.00
2022-10-12T21:13:58.783Z,100.00
2022-10-12T21:16:01.685Z,100.00
2022-10-12T21:18:04.413Z,100.00
2022-10-12T21:20:07.753Z,100.00
2022-10-12T21:22:10.568Z,100.00
2022-10-12T21:24:14.006Z,100.00
2022-10-12T21:26:19.130Z,100.00
2022-10-12T21:28:23.285Z,100.00
2022-10-12T21:30:26.336Z,100.00
2022-10-12T21:32:28.955Z,100.00
2022-10-12T21:34:31.648Z,100.00
2022-10-12T21:36:36.686Z,100.00
2022-10-12T21:38:40.713Z,100.00
2022-10-12T21:40:43.395Z,100.00
2022-10-12T21:42:46.146Z,100.00
2022-10-12T21:44:48.826Z,100.00
2022-10-12T21:46:54.504Z,100.00
2022-10-12T21:48:58.813Z,100.00
2022-10-12T21:51:02.559Z,100.00
2022-10-12T21:53:05.262Z,100.00
2022-10-12T21:55:08.658Z,100.00
2022-10-12T21:57:11.364Z,100.00
2022-10-12T21:59:14.092Z,100.00
2022-10-12T22:01:18.855Z,100.00
2022-10-12T22:03:21.559Z,100.00
2022-10-12T22:05:24.237Z,100.00
2022-10-12T22:07:27.327Z,100.00
2022-10-12T22:09:30.334Z,100.00
2022-10-12T22:11:34.483Z,100.00
2022-10-12T22:13:37.671Z,100.00
2022-10-12T22:15:40.407Z,100.00
2022-10-12T22:17:43.057Z,100.00
2022-10-12T22:19:45.735Z,100.00
2022-10-12T22:21:50.112Z,100.00
2022-10-12T22:23:52.847Z,100.00
2022-10-12T22:26:00.514Z,100.00
2022-10-12T22:28:03.614Z,100.00
2022-10-12T22:30:07.009Z,100.00
2022-10-12T22:32:09.800Z,100.00
2022-10-12T22:34:12.691Z,100.00
2022-10-12T22:36:16.032Z,100.00
2022-10-12T22:38:18.831Z,100.00
2022-10-12T22:40:21.628Z,100.00
2022-10-12T22:42:24.450Z,100.00
2022-10-12T22:44:27.121Z,100.00
2022-10-12T22:46:29.911Z,100.00
2022-10-12T22:48:33.020Z,100.00
2022-10-12T22:50:35.752Z,100.00
2022-10-12T22:52:38.427Z,100.00
2022-10-12T22:54:41.280Z,100.00
2022-10-12T22:56:43.998Z,100.00
2022-10-12T22:58:48.967Z,100.00
2022-10-12T23:00:51.766Z,100.00
2022-10-12T23:02:54.458Z,100.00
2022-10-12T23:04:57.185Z,100.00
2022-10-12T23:06:59.945Z,100.00
2022-10-12T23:09:03.340Z,100.00
2022-10-12T23:11:08.483Z,100.00
2022-10-12T23:13:11.577Z,100.00
2022-10-12T23:15:14.458Z,100.00
2022-10-12T23:17:17.234Z,100.00
2022-10-12T23:19:19.864Z,100.00
2022-10-12T23:21:22.502Z,100.00
2022-10-12T23:23:25.301Z,100.00
2022-10-12T23:25:29.633Z,100.00
2022-10-12T23:27:32.290Z,100.00
2022-10-12T23:29:35.017Z,100.00
2022-10-12T23:31:37.724Z,100.00
2022-10-12T23:33:40.989Z,100.00
2022-10-12T23:35:43.834Z,100.00
2022-10-12T23:37:46.612Z,100.00
2022-10-12T23:39:49.311Z,100.00
2022-10-12T23:41:52.172Z,100.00
2022-10-12T23:43:54.837Z,100.00
2022-10-12T23:45:57.723Z,100.00
2022-10-12T23:48:00.412Z,100.00
2022-10-12T23:50:03.197Z,100.00
2022-10-12T23:52:06.671Z,100.00
2022-10-12T23:54:09.478Z,100.00
2022-10-12T23:56:12.676Z,100.00
2022-10-12T23:58:15.651Z,100.00
